• Join FlightAware (Why Join?)
  • Login
  • US Flag 
02:24PM EDT


 

Airport Tracker/Info


-or-


 

Live Flight TrackerFlight Track Log ✈ MMN48 ✈ 05-May-2013 ✈ KSGJ - KCRE

Flight Track Log - Related Links

Times and Time Zones

All times are in EDT time to prevent confusion due to time zone crossing. See the MMN48 flight status page for this flight to view local times or setup timezone preferences in your user account.

Time Position Orientation Groundspeed Altitude Reporting Facility
EDT Latitude Longitude Course Direction KTS MPH feet Rate Location/Type
12:11PM 30.0442 -81.3544 358° North 210 242 4,300  Level Jacksonville Center
12:12PM 30.1092 -81.3606 355° North 240 276 6,700 2,100 Climbing Jacksonville Center
12:14PM 30.2383 -81.3514 North 298 343 10,100 1,680 Climbing Jacksonville Center
12:15PM 30.3303 -81.3450 North 310 357 11,300 1,320 Climbing Jacksonville Center
12:16PM 30.4303 -81.3361 North 336 387 12,800 1,680 Climbing Jacksonville Center
12:17PM 30.5367 -81.3297 North 357 411 14,700 1,800 Climbing Jacksonville Center
12:18PM 30.6389 -81.3256 North 370 426 16,500 1,800 Climbing Jacksonville Center
12:19PM 30.7414 -81.3383 354° North 370 426 18,300 1,620 Climbing Jacksonville Center
12:20PM 30.8519 -81.3269 North 370 426 19,800 1,320 Climbing Jacksonville Center
12:21PM 30.9644 -81.3178 North 384 442 21,000 1,200 Climbing Jacksonville Center
12:22PM 31.0814 -81.3036 North 404 465 22,300 1,260 Climbing Jacksonville Center
12:23PM 31.1783 -81.2169 37° Northeast 419 482 23,500 1,140 Climbing Jacksonville Center
12:24PM 31.2753 -81.1256 39° Northeast 443 510 24,600 1,080 Climbing Jacksonville Center
12:25PM 31.3742 -81.0336 38° Northeast 448 516 25,700 960 Climbing Jacksonville Center
12:26PM 31.4731 -80.9439 38° Northeast 455 524 26,600 840 Climbing Jacksonville Center
12:27PM 31.5656 -80.8614 37° Northeast 455 524 27,500 1,020 Climbing Jacksonville Center
12:28PM 31.6789 -80.7564 38° Northeast 460 529 28,700 1,020 Climbing Jacksonville Center
12:29PM 31.7711 -80.6689 39° Northeast 465 535 29,600 960 Climbing Jacksonville Center
12:30PM 31.8842 -80.5658 38° Northeast 470 541 30,700 660 Climbing Jacksonville Center
12:31PM 31.9869 -80.4725 38° Northeast 470 541 31,000 120 Climbing Jacksonville Center
12:32PM 32.0975 -80.3692 38° Northeast 486 559 31,000 -60 Level Jacksonville Center
12:33PM 32.2019 -80.2706 39° Northeast 486 559 30,900  Descending Jacksonville Center
12:34PM 32.3083 -80.1692 39° Northeast 486 559 31,000  Climbing Jacksonville Center
12:35PM 32.4169 -80.0700 38° Northeast 486 559 31,000  Level Jacksonville Center
12:36PM 32.5231 -79.9656 40° Northeast 486 559 31,000  Level Jacksonville Center
12:37PM 32.6292 -79.8661 38° Northeast 486 559 31,000 -180 Level Jacksonville Center
12:38PM 32.7333 -79.7661 39° Northeast 481 554 30,700 -1,620 Descending Jacksonville Center
12:39PM 32.8394 -79.6661 38° Northeast 481 554 27,800 -2,940 Descending Jacksonville Center
12:40PM 32.9431 -79.5658 39° Northeast 481 554 24,900 -2,940 Descending Jacksonville Center
12:41PM 33.0428 -79.4706 39° Northeast 481 554 22,000 -2,940 Descending Jacksonville Center
12:42PM 33.1406 -79.3775 39° Northeast 469 540 19,100 -3,000 Descending Jacksonville Center
12:43PM 33.2300 -79.2894 39° Northeast 435 501 16,000 -3,060 Descending Jacksonville Center
12:44PM 33.3153 -79.2067 39° Northeast 411 473 13,100 -2,700 Descending Jacksonville Center
12:45PM 33.3983 -79.1308 37° Northeast 387 445 10,600 -2,340 Descending Jacksonville Center
12:46PM 33.4611 -79.0636 42° Northeast 345 397 8,500 -2,460 Descending Jacksonville Center
12:47PM 33.5219 -79.0061 38° Northeast 296 341 5,700 -2,460 Descending Jacksonville Center
12:48PM 33.5878 -78.9708 24° Northeast 263 303 3,600 -1,500 Descending Jacksonville Center
12:49PM 33.6447 -78.9308 30° Northeast 245 282 2,800 -420 Descending Jacksonville Center
12:50PM 33.6931 -78.8689 47° Northeast 240 276 2,800 -540 Level Jacksonville Center
12:51PM 33.7411 -78.8092 46° Northeast 240 276 1,800 -900 Descending Jacksonville Center
12:52PM 33.7794 -78.7650 44° Northeast 222 255 1,100 -720 Descending Jacksonville Center